createdAt,value
2022-11-04T00:02:16.880Z,16.63
2022-11-04T00:04:43.998Z,18.42
2022-11-04T00:07:31.150Z,17.55
2022-11-04T00:09:58.208Z,16.42
2022-11-04T00:12:25.237Z,17.42
2022-11-04T00:14:52.429Z,17.63
2022-11-04T00:17:19.734Z,17.92
2022-11-04T00:20:07.723Z,21.25
2022-11-04T00:22:54.310Z,18.85
2022-11-04T00:28:35.350Z,19.98
2022-11-04T00:31:22.664Z,20.70
2022-11-04T00:33:51.551Z,20.70
2022-11-04T00:36:18.979Z,19.55
2022-11-04T00:38:46.706Z,21.10
2022-11-04T00:41:26.672Z,19.95
2022-11-04T00:43:56.306Z,21.50
2022-11-04T00:46:23.656Z,18.80
2022-11-04T00:48:50.730Z,20.23
2022-11-04T00:51:18.424Z,19.95
2022-11-04T00:53:45.828Z,20.55
2022-11-04T00:56:13.107Z,19.52
2022-11-04T00:58:40.374Z,21.15
2022-11-04T01:01:09.551Z,18.23
2022-11-04T01:03:37.240Z,21.15
2022-11-04T01:06:04.561Z,18.17
2022-11-04T01:08:31.737Z,19.05
2022-11-04T01:11:03.115Z,22.55
2022-11-04T01:13:30.269Z,16.70
2022-11-04T01:16:07.195Z,19.77
2022-11-04T01:18:34.799Z,18.65
2022-11-04T01:21:03.989Z,20.83
2022-11-04T01:23:31.518Z,19.05
2022-11-04T01:25:58.583Z,21.52
2022-11-04T01:28:26.950Z,19.63
2022-11-04T01:30:53.985Z,18.42
2022-11-04T01:33:21.259Z,21.52
2022-11-04T01:35:48.239Z,16.90
2022-11-04T01:38:15.338Z,18.05
2022-11-04T01:40:42.970Z,17.75
2022-11-04T01:43:21.911Z,20.65
2022-11-04T01:46:01.680Z,17.45
2022-11-04T01:48:34.386Z,22.60
2022-11-04T01:51:01.468Z,17.77
2022-11-04T01:53:35.745Z,21.33
2022-11-04T01:56:12.346Z,22.23
2022-11-04T01:58:46.035Z,18.90
2022-11-04T02:01:13.472Z,18.35
2022-11-04T02:04:19.506Z,22.30
2022-11-04T02:06:48.670Z,19.67
2022-11-04T02:09:18.664Z,23.60
2022-11-04T02:12:04.812Z,18.15
2022-11-04T02:14:34.644Z,20.08
2022-11-04T02:17:23.104Z,19.13
2022-11-04T02:20:14.943Z,31.92
2022-11-04T02:23:08.796Z,21.05
2022-11-04T02:26:03.947Z,20.60
2022-11-04T02:28:50.785Z,23.15
2022-11-04T02:31:23.831Z,26.95
2022-11-04T02:34:09.759Z,20.25
2022-11-04T02:36:55.546Z,19.05
2022-11-04T02:39:35.068Z,18.50
2022-11-04T02:42:14.052Z,20.30
2022-11-04T02:45:00.282Z,22.77
2022-11-04T02:47:31.872Z,20.63
2022-11-04T02:50:12.577Z,17.45
2022-11-04T02:52:48.596Z,20.85
2022-11-04T02:55:23.621Z,21.00
2022-11-04T02:57:54.584Z,18.90
2022-11-04T03:00:22.154Z,19.83
2022-11-04T03:03:10.072Z,18.75
2022-11-04T03:06:05.184Z,18.63
2022-11-04T03:08:39.721Z,22.98
2022-11-04T03:11:22.149Z,19.75
2022-11-04T03:14:01.916Z,20.25
2022-11-04T03:16:33.194Z,18.20
2022-11-04T03:19:15.495Z,20.35
2022-11-04T03:21:51.304Z,17.40
2022-11-04T03:24:18.402Z,17.58
2022-11-04T03:26:53.110Z,19.83
2022-11-04T03:29:37.946Z,19.48
2022-11-04T03:32:08.467Z,19.90
2022-11-04T03:34:37.710Z,19.00
2022-11-04T03:37:05.465Z,18.58
2022-11-04T03:39:33.153Z,19.63
2022-11-04T03:42:20.548Z,19.85
2022-11-04T03:44:53.554Z,18.10
2022-11-04T03:47:26.622Z,23.42
2022-11-04T03:50:09.910Z,19.35
2022-11-04T03:52:37.275Z,19.55
2022-11-04T03:55:06.431Z,20.02
2022-11-04T03:58:01.261Z,17.27
2022-11-04T04:00:34.084Z,20.17
2022-11-04T04:03:16.136Z,18.42
2022-11-04T04:06:02.952Z,19.98
2022-11-04T04:08:44.724Z,19.10
2022-11-04T04:11:41.838Z,21.58
2022-11-04T04:14:11.658Z,19.27
2022-11-04T04:16:41.692Z,19.95
2022-11-04T04:19:13.985Z,18.48
2022-11-04T04:21:59.287Z,19.20
2022-11-04T04:24:51.748Z,20.73
2022-11-04T04:27:33.348Z,19.13
2022-11-04T04:30:06.632Z,21.98
2022-11-04T04:32:47.500Z,21.65
2022-11-04T04:35:33.790Z,21.40
2022-11-04T04:38:25.602Z,21.30
2022-11-04T04:41:18.749Z,20.75
2022-11-04T04:44:04.298Z,19.55
2022-11-04T04:46:32.691Z,18.80
2022-11-04T04:49:08.428Z,20.05
2022-11-04T04:51:39.944Z,20.08
2022-11-04T04:54:07.745Z,20.30
2022-11-04T04:56:34.880Z,23.13
2022-11-04T04:59:01.922Z,23.98
2022-11-04T05:01:29.341Z,23.85
2022-11-04T05:03:56.504Z,23.02
2022-11-04T05:06:23.537Z,23.17
2022-11-04T05:08:50.590Z,22.10
2022-11-04T05:11:20.493Z,23.90
2022-11-04T05:13:49.871Z,21.05
2022-11-04T05:16:16.920Z,22.05
2022-11-04T05:18:44.106Z,23.48
2022-11-04T05:21:14.388Z,28.88
2022-11-04T05:26:08.609Z,23.25
2022-11-04T05:28:35.735Z,25.13
2022-11-04T05:31:04.584Z,21.48
2022-11-04T05:33:32.263Z,25.50
2022-11-04T05:36:11.343Z,24.15
2022-11-04T05:38:39.509Z,25.35
2022-11-04T05:41:08.144Z,28.10
2022-11-04T05:43:35.290Z,24.77
2022-11-04T05:46:02.988Z,22.92
2022-11-04T05:48:30.146Z,24.98
2022-11-04T05:50:57.493Z,21.77
2022-11-04T05:53:24.680Z,23.73
2022-11-04T05:55:51.905Z,27.85
2022-11-04T05:58:19.073Z,24.52
2022-11-04T06:00:46.185Z,21.20
2022-11-04T06:03:16.225Z,20.27
2022-11-04T06:05:43.797Z,19.65
2022-11-04T06:08:10.966Z,21.75
2022-11-04T06:10:38.356Z,22.13
2022-11-04T06:13:05.528Z,24.98
2022-11-04T06:15:32.663Z,22.88
2022-11-04T06:17:59.793Z,23.60
2022-11-04T06:20:26.823Z,25.70
2022-11-04T06:22:54.017Z,21.95
2022-11-04T06:25:21.233Z,34.05
2022-11-04T06:27:48.369Z,26.80
2022-11-04T06:30:15.665Z,24.42
2022-11-04T06:32:42.841Z,24.80
2022-11-04T06:35:10.031Z,24.70
2022-11-04T06:37:38.104Z,25.40
2022-11-04T06:40:05.753Z,24.98
2022-11-04T06:42:32.785Z,26.63
2022-11-04T06:44:59.904Z,26.45
2022-11-04T06:47:26.966Z,27.48
2022-11-04T06:49:54.112Z,28.92
2022-11-04T06:52:21.239Z,27.27
2022-11-04T06:54:48.353Z,28.45
2022-11-04T06:57:15.429Z,24.52
2022-11-04T06:59:42.474Z,24.95
2022-11-04T07:02:11.945Z,33.03
2022-11-04T07:04:39.076Z,25.55
2022-11-04T07:07:06.293Z,23.83
2022-11-04T07:09:34.097Z,24.30
2022-11-04T07:12:01.628Z,21.95
2022-11-04T07:14:28.909Z,23.88
2022-11-04T07:16:55.952Z,28.63
2022-11-04T07:19:23.065Z,24.70
2022-11-04T07:21:50.403Z,22.48
2022-11-04T07:24:17.776Z,20.98
2022-11-04T07:26:45.068Z,24.63
2022-11-04T07:29:12.259Z,24.65
2022-11-04T07:31:39.555Z,21.85
2022-11-04T07:34:06.817Z,25.15
2022-11-04T07:36:34.034Z,21.65
2022-11-04T07:39:02.272Z,22.67
2022-11-04T07:41:29.794Z,23.35
2022-11-04T07:43:59.066Z,22.10
2022-11-04T07:46:26.184Z,24.88
2022-11-04T07:48:53.356Z,23.33
2022-11-04T07:51:21.499Z,20.92
2022-11-04T07:53:48.584Z,19.90
2022-11-04T07:56:16.312Z,20.00
2022-11-04T07:58:43.597Z,26.38
2022-11-04T08:01:14.099Z,20.30
2022-11-04T08:03:41.380Z,24.58
2022-11-04T08:06:11.788Z,22.38
2022-11-04T08:11:17.031Z,22.25
2022-11-04T08:13:46.374Z,21.52
2022-11-04T08:16:16.441Z,22.42
2022-11-04T08:18:44.650Z,18.77
2022-11-04T08:21:12.168Z,20.98
2022-11-04T08:23:39.346Z,20.75
2022-11-04T08:26:11.481Z,28.23
2022-11-04T08:28:39.736Z,22.45
2022-11-04T08:31:08.298Z,19.80
2022-11-04T08:33:36.856Z,21.63
2022-11-04T08:36:10.076Z,20.40
2022-11-04T08:38:37.674Z,23.60
2022-11-04T08:41:06.659Z,21.33
2022-11-04T08:43:35.106Z,21.98
2022-11-04T08:46:03.100Z,20.67
2022-11-04T08:48:30.242Z,20.85
2022-11-04T08:51:01.227Z,19.63
2022-11-04T08:53:28.407Z,22.65
2022-11-04T08:55:55.611Z,23.27
2022-11-04T08:58:24.986Z,22.13
2022-11-04T09:00:52.558Z,21.63
2022-11-04T09:03:19.704Z,24.55
2022-11-04T09:05:49.287Z,23.77
2022-11-04T09:08:18.131Z,21.73
2022-11-04T09:10:48.188Z,23.30
2022-11-04T09:13:16.653Z,20.35
2022-11-04T09:15:44.465Z,19.55
2022-11-04T09:18:11.746Z,26.30
2022-11-04T09:20:38.957Z,23.92
2022-11-04T09:23:06.868Z,23.55
2022-11-04T09:25:35.528Z,23.75
2022-11-04T09:28:02.674Z,24.17
2022-11-04T09:30:29.767Z,26.13
2022-11-04T09:32:56.879Z,21.95
2022-11-04T09:35:24.461Z,23.88
2022-11-04T09:37:51.678Z,20.70
2022-11-04T09:40:22.033Z,25.13
2022-11-04T09:45:23.227Z,69.63
2022-11-04T09:47:55.433Z,30.13
2022-11-04T09:50:34.376Z,31.83
2022-11-04T09:53:07.716Z,73.35
2022-11-04T09:56:02.546Z,29.85
2022-11-04T09:58:37.019Z,29.20
2022-11-04T10:01:20.988Z,30.60
2022-11-04T10:04:02.021Z,26.75
2022-11-04T10:07:17.142Z,28.92
2022-11-04T10:10:00.737Z,26.98
2022-11-04T10:13:08.083Z,76.63
2022-11-04T10:15:44.779Z,25.20
2022-11-04T10:18:20.959Z,25.95
2022-11-04T10:20:48.297Z,25.95
2022-11-04T10:23:31.727Z,27.88
2022-11-04T10:26:15.477Z,27.42
2022-11-04T10:28:53.382Z,26.80
2022-11-04T10:31:20.672Z,28.52
2022-11-04T10:33:55.329Z,28.45
2022-11-04T10:36:25.237Z,32.13
2022-11-04T10:38:56.984Z,35.53
2022-11-04T10:41:39.546Z,38.17
2022-11-04T10:44:20.428Z,39.13
2022-11-04T10:46:54.561Z,35.63
2022-11-04T10:52:45.868Z,40.20
2022-11-04T10:55:31.194Z,31.95
2022-11-04T10:57:59.550Z,35.92
2022-11-04T11:00:39.536Z,32.90
2022-11-04T11:03:29.080Z,35.17
2022-11-04T11:06:14.636Z,37.97
2022-11-04T11:08:44.383Z,37.20
2022-11-04T11:11:13.539Z,41.05
2022-11-04T11:13:43.829Z,36.92
2022-11-04T11:16:13.631Z,36.17
2022-11-04T11:18:42.233Z,35.63
2022-11-04T11:21:16.237Z,30.33
2022-11-04T11:23:48.712Z,31.00
2022-11-04T11:26:20.029Z,31.30
2022-11-04T11:29:02.470Z,33.10
2022-11-04T11:31:38.179Z,33.28
2022-11-04T11:34:22.190Z,31.42
2022-11-04T11:36:50.173Z,36.05
2022-11-04T11:39:22.189Z,34.50
2022-11-04T11:42:04.507Z,32.22
2022-11-04T11:44:37.676Z,31.17
2022-11-04T11:47:07.628Z,30.63
2022-11-04T11:49:36.921Z,27.92
2022-11-04T11:52:27.668Z,31.27
2022-11-04T11:55:04.443Z,27.92
2022-11-04T12:00:40.268Z,30.75
2022-11-04T12:06:30.319Z,29.90
2022-11-04T12:09:35.051Z,29.25
2022-11-04T12:12:16.734Z,32.08
2022-11-04T12:15:05.218Z,30.38
2022-11-04T12:18:09.591Z,30.45
2022-11-04T12:20:39.559Z,31.92
2022-11-04T12:23:25.226Z,35.08
2022-11-04T12:26:14.188Z,38.58
2022-11-04T12:29:09.144Z,36.08
2022-11-04T12:31:54.707Z,33.90
2022-11-04T12:35:03.085Z,38.30
2022-11-04T12:38:05.627Z,42.22
2022-11-04T12:41:04.865Z,36.13
2022-11-04T12:43:43.431Z,35.07
2022-11-04T12:46:30.736Z,34.47
2022-11-04T12:49:21.096Z,49.22
2022-11-04T12:52:26.696Z,38.85
2022-11-04T12:55:14.467Z,46.38
2022-11-04T12:57:47.299Z,50.28
2022-11-04T13:00:17.825Z,39.65
2022-11-04T13:03:00.139Z,37.83
2022-11-04T13:05:58.645Z,64.82
2022-11-04T13:08:31.389Z,36.20
2022-11-04T13:11:24.046Z,31.80
2022-11-04T13:14:01.752Z,33.90
2022-11-04T13:16:31.903Z,32.80
2022-11-04T13:18:59.907Z,32.50
2022-11-04T13:21:34.557Z,29.02
2022-11-04T13:24:32.188Z,30.88
2022-11-04T13:27:04.037Z,31.25
2022-11-04T13:29:34.749Z,32.67
2022-11-04T13:32:07.512Z,31.85
2022-11-04T13:35:16.305Z,34.65
2022-11-04T13:37:58.789Z,35.65
2022-11-04T13:40:52.705Z,35.63
2022-11-04T13:43:40.196Z,32.83
2022-11-04T13:46:19.265Z,37.47
2022-11-04T13:49:11.618Z,34.55
2022-11-04T13:51:43.423Z,30.20
2022-11-04T13:54:34.211Z,32.65
2022-11-04T13:57:12.630Z,33.90
2022-11-04T13:59:40.670Z,34.25
2022-11-04T14:02:19.814Z,39.20
2022-11-04T14:04:47.946Z,38.67
2022-11-04T14:07:18.196Z,34.90
2022-11-04T14:09:45.264Z,35.38
2022-11-04T14:12:17.270Z,33.15
2022-11-04T14:14:46.218Z,30.65
2022-11-04T14:17:35.303Z,33.72
2022-11-04T14:20:07.937Z,31.92
2022-11-04T14:22:49.514Z,33.15
2022-11-04T14:25:36.715Z,27.42
2022-11-04T14:28:19.946Z,29.58
2022-11-04T14:30:53.704Z,28.45
2022-11-04T14:33:29.226Z,32.10
2022-11-04T14:35:57.844Z,31.42
2022-11-04T14:38:27.515Z,32.20
2022-11-04T14:41:16.587Z,30.58
2022-11-04T14:43:46.838Z,34.42
2022-11-04T14:46:22.389Z,36.35
2022-11-04T14:48:53.667Z,72.10
2022-11-04T14:51:41.006Z,106.25
2022-11-04T14:54:20.469Z,96.25
2022-11-04T14:56:47.637Z,38.97
2022-11-04T14:59:23.309Z,35.42
2022-11-04T15:01:52.645Z,42.53
2022-11-04T15:04:31.247Z,58.30
2022-11-04T15:07:01.649Z,37.75
2022-11-04T15:12:32.445Z,40.10
2022-11-04T15:15:00.266Z,37.60
2022-11-04T15:17:31.584Z,39.47
2022-11-04T15:20:02.236Z,43.72
2022-11-04T15:22:30.715Z,37.38
2022-11-04T15:25:02.876Z,38.08
2022-11-04T15:27:30.663Z,41.63
2022-11-04T15:30:00.886Z,40.40
2022-11-04T15:32:28.307Z,99.90
2022-11-04T15:34:56.620Z,35.97
2022-11-04T15:37:26.182Z,44.92
2022-11-04T15:39:56.679Z,42.53
2022-11-04T15:43:00.244Z,42.08
2022-11-04T15:45:38.591Z,44.22
2022-11-04T15:48:35.032Z,36.95
2022-11-04T15:51:22.908Z,56.00
2022-11-04T15:54:06.368Z,57.75
2022-11-04T15:56:42.666Z,62.65
2022-11-04T15:59:16.104Z,36.35
2022-11-04T16:01:48.810Z,46.35
2022-11-04T16:04:18.285Z,66.20
2022-11-04T16:06:48.272Z,43.33
2022-11-04T16:09:27.144Z,54.67
2022-11-04T16:12:16.775Z,52.30
2022-11-04T16:14:52.365Z,48.47
2022-11-04T16:17:20.764Z,50.28
2022-11-04T16:20:04.557Z,38.92
2022-11-04T16:22:35.632Z,48.92
2022-11-04T16:25:05.716Z,44.35
2022-11-04T16:27:35.375Z,37.60
2022-11-04T16:30:06.474Z,37.67
2022-11-04T16:32:44.198Z,39.85
2022-11-04T16:35:22.054Z,49.58
2022-11-04T16:37:50.989Z,41.25
2022-11-04T16:40:19.462Z,41.00
2022-11-04T16:42:47.712Z,34.10
2022-11-04T16:45:23.854Z,36.03
2022-11-04T16:47:51.436Z,36.08
2022-11-04T16:50:18.854Z,47.95
2022-11-04T16:52:46.114Z,34.00
2022-11-04T16:55:15.046Z,63.75
2022-11-04T16:57:42.786Z,55.28
2022-11-04T17:00:23.415Z,57.15
2022-11-04T17:02:51.768Z,49.50
2022-11-04T17:05:19.638Z,39.72
2022-11-04T17:07:53.776Z,37.38
2022-11-04T17:10:25.673Z,50.47
2022-11-04T17:12:53.160Z,67.88
2022-11-04T17:15:20.577Z,49.67
2022-11-04T17:17:47.791Z,34.85
2022-11-04T17:20:17.886Z,68.05
2022-11-04T17:22:47.166Z,42.35
2022-11-04T17:25:21.123Z,39.13
2022-11-04T17:27:49.313Z,41.55
2022-11-04T17:30:17.452Z,47.28
2022-11-04T17:32:45.884Z,39.67
2022-11-04T17:35:13.874Z,55.80
2022-11-04T17:37:41.792Z,72.10
2022-11-04T17:40:13.903Z,48.80
2022-11-04T17:42:59.958Z,46.10
2022-11-04T17:45:27.223Z,54.40
2022-11-04T17:47:54.349Z,41.97
2022-11-04T17:50:21.786Z,44.53
2022-11-04T17:52:49.506Z,50.05
2022-11-04T17:55:20.701Z,49.70
2022-11-04T17:57:50.314Z,38.65
2022-11-04T18:00:18.394Z,45.75
2022-11-04T18:02:49.111Z,40.03
2022-11-04T18:05:16.425Z,43.67
2022-11-04T18:07:43.487Z,58.90
2022-11-04T18:10:11.668Z,41.47
2022-11-04T18:12:38.909Z,48.78
2022-11-04T18:15:10.321Z,47.50
2022-11-04T18:17:39.355Z,48.55
2022-11-04T18:20:13.391Z,50.25
2022-11-04T18:22:42.784Z,54.55
2022-11-04T18:25:11.614Z,48.25
2022-11-04T18:27:39.046Z,48.78
2022-11-04T18:30:07.291Z,52.40
2022-11-04T18:32:34.381Z,53.35
2022-11-04T18:35:01.480Z,54.15
2022-11-04T18:37:29.192Z,51.05
2022-11-04T18:39:56.386Z,51.25
2022-11-04T18:42:23.509Z,58.35
2022-11-04T18:44:50.837Z,49.60
2022-11-04T18:47:18.268Z,65.78
2022-11-04T18:49:47.220Z,59.38
2022-11-04T18:52:14.566Z,56.85
2022-11-04T18:54:44.889Z,50.60
2022-11-04T18:57:12.376Z,59.10
2022-11-04T18:59:39.617Z,59.15
2022-11-04T19:02:08.313Z,50.70
2022-11-04T19:04:35.535Z,56.78
2022-11-04T19:07:04.568Z,56.08
2022-11-04T19:09:46.121Z,68.28
2022-11-04T19:12:32.667Z,55.78
2022-11-04T19:14:59.834Z,54.15
2022-11-04T19:17:27.032Z,54.05
2022-11-04T19:19:54.242Z,55.05
2022-11-04T19:22:21.537Z,60.17
2022-11-04T19:24:48.855Z,54.53
2022-11-04T19:27:18.047Z,57.92
2022-11-04T19:29:46.143Z,66.70
2022-11-04T19:32:14.513Z,59.30
2022-11-04T19:34:42.818Z,63.15
2022-11-04T19:37:11.006Z,64.63
2022-11-04T19:39:38.998Z,53.72
2022-11-04T19:42:24.488Z,56.50
2022-11-04T19:44:51.859Z,52.65
2022-11-04T19:47:19.248Z,57.08
2022-11-04T19:49:46.497Z,57.80
2022-11-04T19:52:14.054Z,57.58
2022-11-04T19:54:41.188Z,60.10
2022-11-04T19:57:08.379Z,56.55
2022-11-04T19:59:35.591Z,56.03
2022-11-04T20:02:02.858Z,65.10
2022-11-04T20:04:30.096Z,64.65
2022-11-04T20:06:57.227Z,75.00
2022-11-04T20:09:26.208Z,63.47
2022-11-04T20:12:11.870Z,61.40
2022-11-04T20:14:39.448Z,62.88
2022-11-04T20:17:07.382Z,61.78
2022-11-04T20:19:35.474Z,65.40
2022-11-04T20:22:03.676Z,63.78
2022-11-04T20:24:31.006Z,68.70
2022-11-04T20:26:58.153Z,58.53
2022-11-04T20:29:25.197Z,58.90
2022-11-04T20:31:52.367Z,50.78
2022-11-04T20:34:19.654Z,51.42
2022-11-04T20:36:47.006Z,64.80
2022-11-04T20:39:17.606Z,70.75
2022-11-04T20:41:45.574Z,64.50
2022-11-04T20:44:14.966Z,77.15
2022-11-04T20:46:43.296Z,65.15
2022-11-04T20:49:11.371Z,63.50
2022-11-04T20:51:50.105Z,76.05
2022-11-04T20:56:46.238Z,54.03
2022-11-04T20:59:14.190Z,64.72
2022-11-04T21:01:43.616Z,65.60
2022-11-04T21:04:15.244Z,58.23
2022-11-04T21:06:42.867Z,67.13
2022-11-04T21:09:13.037Z,72.82
2022-11-04T21:11:40.911Z,62.30
2022-11-04T21:14:11.752Z,71.43
2022-11-04T21:16:38.996Z,80.70
2022-11-04T21:19:06.728Z,85.55
2022-11-04T21:21:33.878Z,75.03
2022-11-04T21:24:03.395Z,83.72
2022-11-04T21:26:34.337Z,70.27
2022-11-04T21:29:07.309Z,86.35
2022-11-04T21:31:36.469Z,80.45
2022-11-04T21:34:04.927Z,70.93
2022-11-04T21:36:32.907Z,71.90
2022-11-04T21:39:00.585Z,83.45
2022-11-04T21:41:30.758Z,69.85
2022-11-04T21:44:03.187Z,63.90
2022-11-04T21:46:31.854Z,60.80
2022-11-04T21:48:59.717Z,73.43
2022-11-04T21:51:29.821Z,73.80
2022-11-04T21:53:58.288Z,65.70
2022-11-04T21:56:28.027Z,74.18
2022-11-04T21:58:56.152Z,66.28
2022-11-04T22:01:26.461Z,81.50
2022-11-04T22:06:22.851Z,71.25
2022-11-04T22:08:54.547Z,62.70
2022-11-04T22:11:24.912Z,75.47
2022-11-04T22:16:27.181Z,62.55
2022-11-04T22:18:56.147Z,63.15
2022-11-04T22:21:25.216Z,67.03
2022-11-04T22:23:52.666Z,50.38
2022-11-04T22:26:22.311Z,74.28
2022-11-04T22:28:49.465Z,78.88
2022-11-04T22:31:24.519Z,65.35
2022-11-04T22:33:52.466Z,66.15
2022-11-04T22:36:20.365Z,73.50
2022-11-04T22:38:47.780Z,79.47
2022-11-04T22:41:19.615Z,76.35
2022-11-04T22:43:46.857Z,80.13
2022-11-04T22:46:19.746Z,69.88
2022-11-04T22:48:47.130Z,81.72
2022-11-04T22:51:14.349Z,63.72
2022-11-04T22:53:41.889Z,74.93
2022-11-04T22:56:11.945Z,79.88
2022-11-04T22:58:39.198Z,66.82
2022-11-04T23:01:10.089Z,74.80
2022-11-04T23:03:37.726Z,78.38
2022-11-04T23:06:06.837Z,70.32
2022-11-04T23:08:35.677Z,73.25
2022-11-04T23:11:43.864Z,73.43
2022-11-04T23:14:34.011Z,74.90
2022-11-04T23:17:19.803Z,75.72
2022-11-04T23:19:46.930Z,60.53
2022-11-04T23:22:32.779Z,62.65
2022-11-04T23:25:05.953Z,60.60
2022-11-04T23:27:53.104Z,83.15
2022-11-04T23:30:26.811Z,59.88
2022-11-04T23:33:02.473Z,70.43
2022-11-04T23:35:58.140Z,73.88
2022-11-04T23:38:25.946Z,66.50
2022-11-04T23:41:15.562Z,62.00
2022-11-04T23:43:42.777Z,66.43
2022-11-04T23:46:29.536Z,66.65
2022-11-04T23:49:15.393Z,62.80
2022-11-04T23:52:01.311Z,71.22
2022-11-04T23:54:47.199Z,63.20
2022-11-04T23:57:35.126Z,76.68
